ADDS METAR Data INFO
IDs: Format: Raw Decoded Include TAF

Data at: 0920 UTC 13 Dec 2017

KM40 130915Z AUTO 00000KT 10SM CLR M04/M04 A3014 RMK AO2
KM40 130855Z AUTO 00000KT 10SM CLR M04/M04 A3014 RMK AO2
KM40 130835Z AUTO 00000KT 10SM CLR M04/M04 A3014 RMK AO2
KM40 130815Z AUTO 00000KT 10SM CLR M04/M04 A3014 RMK AO2
KM40 130755Z AUTO 00000KT 10SM CLR M04/M04 A3015 RMK AO2
KM40 130735Z AUTO 00000KT 10SM CLR M04/M04 A3016 RMK AO2
KM40 130715Z AUTO 00000KT 10SM CLR M03/M04 A3015 RMK AO2
KM40 130655Z AUTO 00000KT 10SM CLR M03/M04 A3016 RMK AO2
KM40 130635Z AUTO 00000KT 10SM CLR M03/M04 A3016 RMK AO2
KM40 130615Z AUTO 00000KT 10SM CLR M03/M04 A3016 RMK AO2
KM40 130555Z AUTO 00000KT 10SM CLR M03/M05 A3017 RMK AO2
KM40 130535Z AUTO 00000KT 10SM CLR M03/M05 A3018 RMK AO2
KM40 130515Z AUTO 00000KT 10SM CLR M03/M05 A3018 RMK AO2
KM40 130455Z AUTO 00000KT 10SM CLR M02/M05 A3018 RMK AO2
KM40 130435Z AUTO 00000KT 10SM CLR M02/M05 A3019 RMK AO2
KM40 130415Z AUTO 28003KT 10SM CLR M02/M05 A3019 RMK AO2
KM40 130355Z AUTO 00000KT 10SM CLR M01/M05 A3018 RMK AO2
KM40 130335Z AUTO 00000KT 10SM CLR M00/M05 A3018 RMK AO2
KM40 130315Z AUTO 00000KT 10SM CLR M00/M05 A3018 RMK AO2
KM40 130255Z AUTO 00000KT 10SM CLR 01/M05 A3017 RMK AO2
KM40 130235Z AUTO 00000KT 10SM CLR 02/M05 A3017 RMK AO2
KM40 130215Z AUTO 33003KT 10SM CLR 03/M05 A3017 RMK AO2
KM40 130155Z AUTO 35006KT 10SM CLR 03/M04 A3016 RMK AO2
KM40 130135Z AUTO 34005KT 10SM CLR 04/M04 A3016 RMK AO2
KM40 130115Z AUTO 33006KT 10SM CLR 04/M04 A3015 RMK AO2
KM40 130055Z AUTO 35007KT 10SM CLR 05/M04 A3014 RMK AO2
KM40 130035Z AUTO 35005KT 10SM CLR 05/M03 A3014 RMK AO2
KM40 130015Z AUTO 34006KT 10SM CLR 06/M03 A3014 RMK AO2
KM40 122355Z AUTO 35004KT 10SM CLR 07/M02 A3013 RMK AO2
KM40 122335Z AUTO 33006KT 10SM CLR 07/M02 A3013 RMK AO2
KM40 122315Z AUTO 32005KT 10SM CLR 08/M02 A3012 RMK AO2
KM40 122255Z AUTO 33009KT 10SM CLR 09/M01 A3011 RMK AO2
KM40 122235Z AUTO 32009KT 10SM CLR 10/M01 A3011 RMK AO2
KM40 122215Z AUTO 34009KT 10SM CLR 11/M00 A3011 RMK AO2
KM40 122155Z AUTO 34012KT 10SM CLR 11/01 A3012 RMK AO2
KM40 122135Z AUTO 33012G18KT 10SM CLR 12/02 A3011 RMK AO2
KM40 122115Z AUTO 34009G15KT 10SM CLR 12/02 A3011 RMK AO2
KM40 122055Z AUTO 34011G19KT 10SM CLR 12/02 A3011 RMK AO2
KM40 122035Z AUTO 29009G17KT 260V350 10SM CLR 12/02 A3010 RMK AO2
KM40 122015Z AUTO 32012KT 10SM CLR 12/03 A3010 RMK AO2
KM40 121955Z AUTO 34014KT 10SM CLR 12/04 A3010 RMK AO2
KM40 121935Z AUTO 33009G18KT 10SM CLR 13/04 A3011 RMK AO2
KM40 121915Z AUTO 33013G22KT 10SM CLR 13/04 A3011 RMK AO2
KM40 121855Z AUTO 30013G19KT 10SM CLR 13/04 A3012 RMK AO2
KM40 121835Z AUTO 32014KT 10SM FEW045 13/05 A3013 RMK AO2
KM40 121815Z AUTO 30007G17KT 250V330 10SM FEW044 12/05 A3013 RMK AO2
KM40 121755Z AUTO 30009G17KT 10SM FEW044 12/05 A3014 RMK AO2
KM40 121735Z AUTO 34016KT 10SM FEW042 12/05 A3015 RMK AO2
KM40 121715Z AUTO 34014KT 10SM BKN041 11/04 A3016 RMK AO2
KM40 121655Z AUTO 33012G21KT 290V350 10SM OVC041 11/04 A3016 RMK AO2
KM40 121635Z AUTO 33016KT 10SM OVC042 11/05 A3016 RMK AO2
KM40 121615Z AUTO 34019KT 10SM BKN039 11/05 A3017 RMK AO2
KM40 121555Z AUTO 34012G22KT 10SM BKN044 11/05 A3016 RMK AO2
KM40 121535Z AUTO 33015KT 10SM OVC044 10/05 A3015 RMK AO2
KM40 121515Z AUTO 34015G20KT 10SM BKN046 11/05 A3015 RMK AO2
KM40 121435Z AUTO 32010KT 10SM CLR 10/05 A3013 RMK AO2
KM40 121415Z AUTO 31008KT 10SM CLR 09/04 A3013 RMK AO2
KM40 121355Z AUTO 31008KT 10SM CLR 08/04 A3013 RMK AO2
KM40 121335Z AUTO 33008KT 10SM CLR 08/03 A3012 RMK AO2
KM40 121315Z AUTO 32008KT 10SM CLR 07/02 A3011 RMK AO2
KM40 121255Z AUTO 32008KT 10SM CLR 06/02 A3010 RMK AO2
KM40 121235Z AUTO 31007KT 10SM CLR 06/01 A3008 RMK AO2
KM40 121215Z AUTO 30006KT 10SM CLR 06/01 A3007 RMK AO2
KM40 121155Z AUTO 30005KT 10SM CLR 06/01 A3005 RMK AO2
KM40 121135Z AUTO 32006KT 10SM FEW046 07/02 A3004 RMK AO2
KM40 121115Z AUTO 32005KT 10SM FEW038 SCT048 07/02 A3003 RMK AO2
KM40 121055Z AUTO 32005KT 10SM FEW042 SCT049 07/02 A3002 RMK AO2
KM40 121035Z AUTO 32006KT 10SM FEW040 08/02 A3002 RMK AO2
KM40 121015Z AUTO 32006KT 10SM CLR 08/02 A3002 RMK AO2
KM40 120955Z AUTO 32007KT 10SM CLR 08/03 A3001 RMK AO2
KM40 120935Z AUTO 33009KT 10SM CLR 09/03 A3001 RMK AO2
KM40 120915Z AUTO 34008KT 10SM FEW055 10/04 A3000 RMK AO2
KM40 120855Z AUTO 34009KT 10SM FEW036 SCT055 10/05 A3000 RMK AO2
KM40 120835Z AUTO 33010KT 10SM SCT035 SCT042 BKN050 09/05 A2999 RMK AO2
KM40 120815Z AUTO 34006G11KT 10SM FEW034 SCT045 07/04 A2999 RMK AO2
KM40 120755Z AUTO 00000KT 10SM FEW029 SCT036 BKN045 07/05 A2999 RMK AO2
KM40 120735Z AUTO 32005KT 10SM FEW037 FEW047 07/05 A2999 RMK AO2
KM40 120715Z AUTO 32006KT 10SM FEW047 05/04 A2998 RMK AO2
KM40 120655Z AUTO 00000KT 10SM FEW047 FEW055 05/03 A2998 RMK AO2
KM40 120635Z AUTO 00000KT 10SM FEW046 FEW055 05/03 A2997 RMK AO2
KM40 120615Z AUTO 00000KT 10SM FEW046 06/04 A2998 RMK AO2
KM40 120555Z AUTO 00000KT 10SM FEW042 FEW050 06/04 A2998 RMK AO2
KM40 120535Z AUTO 00000KT 10SM FEW055 07/05 A2998 RMK AO2
KM40 120515Z AUTO 34013G25KT 10SM CLR 04/03 A2999 RMK AO2
KM40 120455Z AUTO 16004KT 10SM CLR 04/01 A2995 RMK AO2
KM40 120435Z AUTO 16004KT 10SM CLR 05/02 A2996 RMK AO2
KM40 120415Z AUTO 17004KT 10SM CLR 06/02 A2996 RMK AO2
KM40 120355Z AUTO 18004KT 10SM CLR 06/02 A2997 RMK AO2
KM40 120335Z AUTO 18004KT 10SM CLR 07/03 A2997 RMK AO2
KM40 120315Z AUTO 19005KT 10SM CLR 08/03 A2998 RMK AO2
KM40 120255Z AUTO 19005KT 10SM CLR 08/03 A2998 RMK AO2
KM40 120235Z AUTO 18006KT 10SM CLR 07/03 A2998 RMK AO2
KM40 120215Z AUTO 00000KT 10SM CLR 07/02 A2998 RMK AO2
KM40 120155Z AUTO 17005KT 10SM CLR 07/02 A2998 RMK AO2
KM40 120135Z AUTO 17005KT 10SM CLR 07/02 A2999 RMK AO2
KM40 120115Z AUTO 00000KT 10SM CLR 07/02 A2999 RMK AO2
KM40 120055Z AUTO 17004KT 10SM CLR 07/02 A3000 RMK AO2
KM40 120035Z AUTO 16004KT 10SM CLR 08/02 A3000 RMK AO2
KM40 120015Z AUTO 00000KT 10SM CLR 09/02 A3000 RMK AO2
KM40 112355Z AUTO 00000KT 10SM CLR 10/02 A3000 RMK AO2
KM40 112335Z AUTO 17004KT 10SM CLR 10/02 A3000 RMK AO2
KM40 112315Z AUTO 15004KT 10SM CLR 12/03 A3000 RMK AO2
KM40 112255Z AUTO 17004KT 10SM CLR 13/03 A3001 RMK AO2
KM40 112235Z AUTO 22004KT 10SM CLR 15/04 A3002 RMK AO2
KM40 112215Z AUTO 20007KT 10SM CLR 17/05 A3001 RMK AO2
KM40 112155Z AUTO 19006KT 10SM CLR 18/06 A3002 RMK AO2
KM40 112135Z AUTO 21007KT 10SM CLR 18/06 A3003 RMK AO2